createdAt,value
2019-02-11T00:02:13.906Z,100580.09
2019-02-11T00:04:41.039Z,100580.44
2019-02-11T00:07:08.206Z,100585.78
2019-02-11T00:09:35.313Z,100595.86
2019-02-11T00:12:02.376Z,100594.08
2019-02-11T00:14:29.416Z,100606.13
2019-02-11T00:16:56.535Z,100605.98
2019-02-11T00:19:30.524Z,100621.81
2019-02-11T00:21:57.615Z,100632.36
2019-02-11T00:24:24.713Z,100636.60
2019-02-11T00:26:52.536Z,100647.02
2019-02-11T00:29:19.577Z,100647.50
2019-02-11T00:31:46.683Z,100658.87
2019-02-11T00:34:13.731Z,100666.34
2019-02-11T00:36:40.785Z,100673.88
2019-02-11T00:39:07.887Z,100672.98
2019-02-11T00:41:34.937Z,100654.28
2019-02-11T00:44:02.005Z,100660.86
2019-02-11T00:46:29.082Z,100676.08
2019-02-11T00:48:56.131Z,100676.22
2019-02-11T00:51:23.186Z,100682.45
2019-02-11T00:53:50.295Z,100692.80
2019-02-11T00:56:17.347Z,100696.70
2019-02-11T00:58:44.440Z,100698.34
2019-02-11T01:01:11.566Z,100711.70
2019-02-11T01:03:38.711Z,100719.02
2019-02-11T01:06:05.789Z,100722.45
2019-02-11T01:08:32.870Z,100720.25
2019-02-11T01:10:59.969Z,100721.89
2019-02-11T01:13:28.040Z,100724.42
2019-02-11T01:15:55.244Z,100730.93
2019-02-11T01:18:22.351Z,100734.84
2019-02-11T01:20:49.412Z,100738.89
2019-02-11T01:23:16.463Z,100747.18
2019-02-11T01:25:43.548Z,100751.64
2019-02-11T01:28:10.743Z,100755.20
2019-02-11T01:30:39.912Z,100763.42
2019-02-11T01:33:06.987Z,100768.48
2019-02-11T01:35:37.001Z,100776.30
2019-02-11T01:38:04.082Z,100781.39
2019-02-11T01:40:31.196Z,100784.69
2019-02-11T01:43:04.530Z,100783.73
2019-02-11T01:45:31.589Z,100800.98
2019-02-11T01:47:58.783Z,100802.44
2019-02-11T01:50:25.866Z,100807.31
2019-02-11T01:52:52.927Z,100809.09
2019-02-11T01:55:20.320Z,100818.21
2019-02-11T01:57:47.466Z,100817.88
2019-02-11T02:00:14.529Z,100815.75
2019-02-11T02:02:41.663Z,100820.70
2019-02-11T02:05:08.846Z,100830.03
2019-02-11T02:07:35.895Z,100835.65
2019-02-11T02:10:03.592Z,100838.03
2019-02-11T02:12:30.649Z,100845.84
2019-02-11T02:14:58.995Z,100847.22
2019-02-11T02:17:26.091Z,100855.74
2019-02-11T02:19:53.144Z,100859.39
2019-02-11T02:22:20.198Z,100857.83
2019-02-11T02:24:47.289Z,100848.37
2019-02-11T02:27:14.341Z,100854.55
2019-02-11T02:29:50.424Z,100862.95
2019-02-11T02:32:17.535Z,100871.52
2019-02-11T02:34:44.586Z,100876.98
2019-02-11T02:37:11.795Z,100884.09
2019-02-11T02:39:38.855Z,100885.73
2019-02-11T02:42:07.701Z,100886.95
2019-02-11T02:44:34.793Z,100894.61
2019-02-11T02:47:01.882Z,100896.33
2019-02-11T02:49:28.978Z,100904.29
2019-02-11T02:51:56.081Z,100898.67
2019-02-11T02:54:23.163Z,100901.58
2019-02-11T02:56:50.207Z,100905.56
2019-02-11T02:59:20.121Z,100907.34
2019-02-11T03:01:47.203Z,100909.31
2019-02-11T03:04:14.251Z,100916.16
2019-02-11T03:06:41.289Z,100919.25
2019-02-11T03:09:09.882Z,100937.48
2019-02-11T03:11:36.939Z,100927.63
2019-02-11T03:14:06.184Z,100950.88
2019-02-11T03:16:32.988Z,100953.56
2019-02-11T03:19:00.039Z,100961.38
2019-02-11T03:21:27.098Z,100965.69
2019-02-11T03:23:54.209Z,100975.87
2019-02-11T03:26:21.240Z,100969.22
2019-02-11T03:28:48.292Z,100973.61
2019-02-11T03:31:15.599Z,100988.09
2019-02-11T03:33:42.646Z,100995.26
2019-02-11T03:36:09.782Z,101004.38
2019-02-11T03:38:36.862Z,101003.30
2019-02-11T03:41:03.921Z,101000.94
2019-02-11T03:43:30.973Z,101003.44
2019-02-11T03:45:58.066Z,101010.59
2019-02-11T03:48:26.536Z,101019.70
2019-02-11T03:50:53.641Z,101028.16
2019-02-11T03:53:20.999Z,101020.13
2019-02-11T03:55:50.618Z,101034.45
2019-02-11T03:58:17.839Z,101029.00
2019-02-11T04:00:44.928Z,101037.54
2019-02-11T04:03:11.965Z,101039.89
2019-02-11T04:05:39.030Z,101045.84
2019-02-11T04:08:06.127Z,101045.53
2019-02-11T04:10:33.181Z,101049.75
2019-02-11T04:13:00.239Z,101056.67
2019-02-11T04:15:27.313Z,101067.34
2019-02-11T04:17:55.473Z,101072.31
2019-02-11T04:20:23.755Z,101074.34
2019-02-11T04:22:52.597Z,101082.97
2019-02-11T04:25:19.675Z,101086.72
2019-02-11T04:27:46.714Z,101086.47
2019-02-11T04:30:13.852Z,101090.63
2019-02-11T04:32:43.441Z,101096.34
2019-02-11T04:35:10.490Z,101102.03
2019-02-11T04:37:37.713Z,101111.16
2019-02-11T04:40:05.901Z,101124.91
2019-02-11T04:42:32.942Z,101132.07
2019-02-11T04:45:04.350Z,101132.64
2019-02-11T04:47:31.409Z,101130.36
2019-02-11T04:49:58.473Z,101138.98
2019-02-11T04:52:25.576Z,101144.34
2019-02-11T04:54:52.650Z,101146.13
2019-02-11T04:57:22.039Z,101155.57
2019-02-11T04:59:49.240Z,101158.98
2019-02-11T05:02:20.670Z,101153.53
2019-02-11T05:04:49.536Z,101152.14
2019-02-11T05:07:19.731Z,101162.19
2019-02-11T05:09:46.780Z,101160.71
2019-02-11T05:12:32.176Z,101165.51
2019-02-11T05:14:59.265Z,101169.65
2019-02-11T05:17:29.688Z,101170.05
2019-02-11T05:19:56.971Z,101179.55
2019-02-11T05:22:25.054Z,101178.48
2019-02-11T05:24:52.090Z,101184.17
2019-02-11T05:27:19.296Z,101185.70
2019-02-11T05:29:46.352Z,101185.94
2019-02-11T05:32:13.527Z,101187.97
2019-02-11T05:34:40.619Z,101195.27
2019-02-11T05:37:13.998Z,101203.98
2019-02-11T05:39:41.192Z,101214.70
2019-02-11T05:42:08.403Z,101213.89
2019-02-11T05:44:35.501Z,101209.76
2019-02-11T05:47:02.573Z,101216.52
2019-02-11T05:49:29.774Z,101216.12
2019-02-11T05:51:56.925Z,101219.30
2019-02-11T05:54:36.667Z,101227.66
2019-02-11T05:57:03.712Z,101240.17
2019-02-11T05:59:30.747Z,101245.55
2019-02-11T06:01:57.872Z,101254.20
2019-02-11T06:04:24.957Z,101263.52
2019-02-11T06:06:52.209Z,101267.31
2019-02-11T06:09:19.282Z,101281.71
2019-02-11T06:11:46.355Z,101282.47
2019-02-11T06:14:15.704Z,101279.08
2019-02-11T06:16:42.819Z,101291.92
2019-02-11T06:19:10.069Z,101293.40
2019-02-11T06:21:37.151Z,101303.27
2019-02-11T06:24:13.543Z,101307.41
2019-02-11T06:26:40.632Z,101315.16
2019-02-11T06:29:07.687Z,101324.53
2019-02-11T06:31:34.962Z,101325.48
2019-02-11T06:34:02.074Z,101342.50
2019-02-11T06:36:29.135Z,101342.41
2019-02-11T06:38:58.181Z,101345.33
2019-02-11T06:41:25.243Z,101351.08
2019-02-11T06:43:52.340Z,101361.41
2019-02-11T06:46:19.432Z,101366.61
2019-02-11T06:48:46.499Z,101379.63
2019-02-11T06:51:13.562Z,101381.74
2019-02-11T06:53:40.818Z,101395.84
2019-02-11T06:56:07.884Z,101399.34
2019-02-11T06:58:35.104Z,101405.71
2019-02-11T07:01:02.196Z,101409.61
2019-02-11T07:04:24.048Z,101416.75
2019-02-11T07:06:51.202Z,101415.81
2019-02-11T07:09:18.390Z,101424.30
2019-02-11T07:11:45.458Z,101431.75
2019-02-11T07:14:12.531Z,101440.45
2019-02-11T07:16:39.576Z,101438.34
2019-02-11T07:19:06.614Z,101447.36
2019-02-11T07:21:33.752Z,101445.30
2019-02-11T07:24:00.784Z,101446.69
2019-02-11T07:26:27.840Z,101446.59
2019-02-11T07:28:55.047Z,101452.92
2019-02-11T07:31:23.200Z,101459.03
2019-02-11T07:33:50.275Z,101468.94
2019-02-11T07:36:18.084Z,101479.27
2019-02-11T07:38:45.256Z,101481.09
2019-02-11T07:41:13.339Z,101490.53
2019-02-11T07:44:02.687Z,101499.55
2019-02-11T07:46:42.172Z,101507.84
2019-02-11T07:49:40.293Z,101501.22
2019-02-11T07:52:08.553Z,101519.53
2019-02-11T07:54:35.710Z,101516.73
2019-02-11T07:57:02.899Z,101521.05
2019-02-11T07:59:29.950Z,101531.14
2019-02-11T08:01:57.041Z,101533.13
2019-02-11T08:04:24.138Z,101532.52
2019-02-11T08:06:51.194Z,101542.05
2019-02-11T08:09:18.224Z,101544.66
2019-02-11T08:11:45.316Z,101554.76
2019-02-11T08:14:12.367Z,101552.94
2019-02-11T08:16:39.427Z,101561.03
2019-02-11T08:19:06.499Z,101563.14
2019-02-11T08:21:33.552Z,101567.83
2019-02-11T08:24:00.598Z,101562.72
2019-02-11T08:26:27.836Z,101566.41
2019-02-11T08:28:54.996Z,101572.80
2019-02-11T08:31:22.062Z,101584.30
2019-02-11T08:33:49.161Z,101583.18
2019-02-11T08:36:16.234Z,101585.45
2019-02-11T08:38:43.464Z,101590.34
2019-02-11T08:41:10.582Z,101597.45
2019-02-11T08:43:37.626Z,101599.52
2019-02-11T08:46:04.689Z,101602.50
2019-02-11T08:48:31.792Z,101603.23
2019-02-11T08:51:01.239Z,101617.44
2019-02-11T08:53:28.271Z,101615.92
2019-02-11T08:55:55.368Z,101619.38
2019-02-11T08:58:22.423Z,101626.27
2019-02-11T09:00:49.468Z,101626.94
2019-02-11T09:03:16.544Z,101636.65
2019-02-11T09:05:43.593Z,101632.11
2019-02-11T09:08:10.716Z,101645.64
2019-02-11T09:10:46.097Z,101653.15
2019-02-11T09:13:13.209Z,101648.20
2019-02-11T09:15:40.529Z,101648.26
2019-02-11T09:18:07.623Z,101653.92
2019-02-11T09:20:34.794Z,101659.77
2019-02-11T09:23:01.849Z,101660.66
2019-02-11T09:25:28.945Z,101665.23
2019-02-11T09:27:56.039Z,101682.86
2019-02-11T09:30:23.125Z,101686.77
2019-02-11T09:32:50.189Z,101689.00
2019-02-11T09:35:17.355Z,101696.60
2019-02-11T09:37:44.409Z,101704.55
2019-02-11T09:40:12.083Z,101708.98
2019-02-11T09:42:39.143Z,101716.77
2019-02-11T09:45:09.199Z,101721.17
2019-02-11T09:47:36.318Z,101734.23
2019-02-11T09:50:14.334Z,101728.08
2019-02-11T09:52:41.428Z,101741.91
2019-02-11T09:55:19.198Z,101743.97
2019-02-11T09:57:46.421Z,101748.78
2019-02-11T10:00:13.665Z,101753.17
2019-02-11T10:02:59.218Z,101757.29
2019-02-11T10:05:26.256Z,101759.46
2019-02-11T10:07:54.392Z,101755.94
2019-02-11T10:10:23.784Z,101755.13
2019-02-11T10:13:14.068Z,101758.39
2019-02-11T10:15:41.182Z,101766.58
2019-02-11T10:18:08.246Z,101775.79
2019-02-11T10:20:35.291Z,101793.45
2019-02-11T10:23:02.698Z,101790.91
2019-02-11T10:25:29.795Z,101801.12
2019-02-11T10:27:59.932Z,101812.25
2019-02-11T10:30:27.031Z,101812.50
2019-02-11T10:32:54.100Z,101816.52
2019-02-11T10:35:21.444Z,101803.02
2019-02-11T10:37:48.536Z,101810.28
2019-02-11T10:40:15.599Z,101802.08
2019-02-11T10:42:42.765Z,101800.73
2019-02-11T10:45:11.448Z,101800.93
2019-02-11T10:47:40.609Z,101805.69
2019-02-11T10:50:50.775Z,101822.95
2019-02-11T10:53:19.003Z,101825.81
2019-02-11T10:55:47.141Z,101823.52
2019-02-11T10:58:14.257Z,101831.04
2019-02-11T11:00:41.713Z,101831.13
2019-02-11T11:03:09.163Z,101839.39
2019-02-11T11:05:36.268Z,101839.55
2019-02-11T11:08:03.832Z,101846.42
2019-02-11T11:10:32.815Z,101842.63
2019-02-11T11:12:59.869Z,101861.56
2019-02-11T11:15:28.915Z,101874.25
2019-02-11T11:17:56.171Z,101877.52
2019-02-11T11:20:23.361Z,101870.15
2019-02-11T11:23:08.848Z,101871.30
2019-02-11T11:25:35.911Z,101877.16
2019-02-11T11:28:03.192Z,101888.27
2019-02-11T11:31:34.588Z,101881.23
2019-02-11T11:34:01.649Z,101888.42
2019-02-11T11:36:28.741Z,101906.16
2019-02-11T11:38:55.864Z,101903.00
2019-02-11T11:41:24.197Z,101912.25
2019-02-11T11:43:51.611Z,101909.33
2019-02-11T11:46:18.724Z,101932.14
2019-02-11T11:48:45.833Z,101921.34
2019-02-11T11:51:13.010Z,101926.17
2019-02-11T11:53:40.121Z,101926.67
2019-02-11T11:56:07.223Z,101925.95
2019-02-11T11:58:34.271Z,101932.66
2019-02-11T12:01:01.375Z,101939.87
2019-02-11T12:03:29.552Z,101944.61
2019-02-11T12:05:56.663Z,101939.70
2019-02-11T12:08:23.743Z,101948.70
2019-02-11T12:10:50.850Z,101954.27
2019-02-11T12:13:23.127Z,101964.25
2019-02-11T12:15:48.211Z,101979.39
2019-02-11T12:18:15.327Z,101983.59
2019-02-11T12:20:43.028Z,101987.38
2019-02-11T12:23:10.139Z,101983.71
2019-02-11T12:25:37.246Z,101989.23
2019-02-11T12:28:06.343Z,101999.16
2019-02-11T12:30:33.543Z,102007.50
2019-02-11T12:33:00.618Z,102012.00
2019-02-11T12:35:39.716Z,102010.73
2019-02-11T12:38:06.760Z,102013.59
2019-02-11T12:40:33.826Z,102013.63
2019-02-11T12:43:00.908Z,102028.88
2019-02-11T12:45:28.030Z,102028.35
2019-02-11T12:47:55.104Z,102030.65
2019-02-11T12:50:22.163Z,102037.47
2019-02-11T12:52:49.264Z,102043.70
2019-02-11T12:55:16.355Z,102043.07
2019-02-11T12:57:43.435Z,102041.36
2019-02-11T13:00:16.552Z,102050.74
2019-02-11T13:02:41.635Z,102047.37
2019-02-11T13:05:09.826Z,102048.73
2019-02-11T13:07:37.089Z,102050.27
2019-02-11T13:10:06.047Z,102065.89
2019-02-11T13:12:33.112Z,102082.33
2019-02-11T13:15:00.478Z,102105.80
2019-02-11T13:17:34.097Z,102153.36
2019-02-11T13:20:08.495Z,102150.55
2019-02-11T13:22:27.352Z,102163.95
2019-02-11T13:24:54.410Z,102155.73
2019-02-11T13:27:21.565Z,102160.77
2019-02-11T13:29:48.637Z,102169.41
2019-02-11T13:32:15.724Z,102167.30
2019-02-11T13:34:42.848Z,102176.33
2019-02-11T13:37:12.780Z,102162.88
2019-02-11T13:39:39.864Z,102165.05
2019-02-11T13:42:06.986Z,102159.81
2019-02-11T13:44:34.091Z,102168.74
2019-02-11T13:47:01.159Z,102169.75
2019-02-11T13:49:28.273Z,102171.27
2019-02-11T13:51:57.123Z,102177.23
2019-02-11T13:54:24.313Z,102183.55
2019-02-11T13:56:51.709Z,102191.09
2019-02-11T13:59:18.869Z,102190.48
2019-02-11T14:01:45.946Z,102195.70
2019-02-11T14:04:13.041Z,102197.52
2019-02-11T14:06:41.930Z,102199.22
2019-02-11T14:09:11.597Z,102204.62
2019-02-11T14:11:39.032Z,102207.41
2019-02-11T14:14:06.195Z,102206.99
2019-02-11T14:16:34.392Z,102206.95
2019-02-11T14:19:01.506Z,102204.77
2019-02-11T14:21:28.703Z,102202.19
2019-02-11T14:23:57.385Z,102218.15
2019-02-11T14:26:24.485Z,102227.38
2019-02-11T14:28:51.562Z,102230.09
2019-02-11T14:31:18.619Z,102224.78
2019-02-11T14:33:46.028Z,102221.02
2019-02-11T14:36:13.103Z,102222.20
2019-02-11T14:38:40.261Z,102227.05
2019-02-11T14:41:07.421Z,102225.23
2019-02-11T14:43:34.480Z,102229.83
2019-02-11T14:46:01.554Z,102233.03
2019-02-11T14:48:29.439Z,102232.47
2019-02-11T14:50:57.425Z,102245.80
2019-02-11T14:53:24.522Z,102242.03
2019-02-11T14:55:55.909Z,102244.73
2019-02-11T14:58:22.979Z,102249.58
2019-02-11T15:00:50.166Z,102257.77
2019-02-11T15:03:17.291Z,102259.00
2019-02-11T15:05:44.365Z,102275.81
2019-02-11T15:08:11.444Z,102281.45
2019-02-11T15:10:38.569Z,102288.08
2019-02-11T15:13:05.695Z,102288.60
2019-02-11T15:15:32.774Z,102290.06
2019-02-11T15:17:59.868Z,102302.25
2019-02-11T15:20:26.972Z,102311.16
2019-02-11T15:23:12.549Z,102315.33
2019-02-11T15:25:39.791Z,102314.80
2019-02-11T15:28:06.857Z,102331.43
2019-02-11T15:30:33.966Z,102339.02
2019-02-11T15:33:01.029Z,102354.39
2019-02-11T15:35:40.619Z,102363.30
2019-02-11T15:38:07.645Z,102364.12
2019-02-11T15:40:34.724Z,102373.52
2019-02-11T15:43:01.845Z,102384.12
2019-02-11T15:45:29.069Z,102393.86
2019-02-11T15:47:56.162Z,102405.46
2019-02-11T15:50:23.295Z,102408.30
2019-02-11T15:52:50.366Z,102409.42
2019-02-11T15:55:17.943Z,102426.00
2019-02-11T15:57:45.141Z,102424.85
2019-02-11T16:00:17.400Z,102430.54
2019-02-11T16:02:44.637Z,102437.61
2019-02-11T16:05:16.101Z,102442.55
2019-02-11T16:07:40.971Z,102451.41
2019-02-11T16:10:09.895Z,102452.08
2019-02-11T16:12:36.991Z,102453.28
2019-02-11T16:15:04.588Z,102461.82
2019-02-11T16:17:31.678Z,102470.05
2019-02-11T16:19:59.000Z,102475.17
2019-02-11T16:22:26.076Z,102480.70
2019-02-11T16:24:53.354Z,102490.33
2019-02-11T16:27:20.428Z,102497.94
2019-02-11T16:29:47.539Z,102509.57
2019-02-11T16:32:14.631Z,102513.11
2019-02-11T16:34:41.794Z,102524.01
2019-02-11T16:37:08.870Z,102541.64
2019-02-11T16:39:35.923Z,102547.33
2019-02-11T16:42:03.039Z,102545.88
2019-02-11T16:44:30.099Z,102555.27
2019-02-11T16:46:57.164Z,102554.77
2019-02-11T16:49:24.277Z,102556.08
2019-02-11T16:51:51.403Z,102568.00
2019-02-11T16:54:18.479Z,102582.77
2019-02-11T16:57:22.315Z,102589.81
2019-02-11T16:59:50.486Z,102596.78
2019-02-11T17:02:17.564Z,102604.33
2019-02-11T17:04:45.581Z,102608.92
2019-02-11T17:07:12.723Z,102610.52
2019-02-11T17:09:39.993Z,102622.53
2019-02-11T17:12:11.839Z,102630.13
2019-02-11T17:15:17.363Z,102638.64
2019-02-11T17:17:44.510Z,102648.85
2019-02-11T17:20:12.461Z,102652.80
2019-02-11T17:22:41.099Z,102659.67
2019-02-11T17:25:08.890Z,102661.94
2019-02-11T17:27:35.953Z,102663.41
2019-02-11T17:30:03.737Z,102660.58
2019-02-11T17:32:30.847Z,102662.95
2019-02-11T17:34:57.983Z,102662.39
2019-02-11T17:37:25.026Z,102667.16
2019-02-11T17:39:52.128Z,102678.92
2019-02-11T17:42:19.192Z,102672.27
2019-02-11T17:44:46.302Z,102684.73
2019-02-11T17:47:13.410Z,102684.50
2019-02-11T17:49:40.586Z,102691.06
2019-02-11T17:52:09.682Z,102687.20
2019-02-11T17:54:37.053Z,102691.31
2019-02-11T17:57:04.144Z,102708.34
2019-02-11T17:59:31.353Z,102705.81
2019-02-11T18:01:58.702Z,102706.12
2019-02-11T18:04:25.790Z,102718.69
2019-02-11T18:06:52.939Z,102714.33
2019-02-11T18:09:20.033Z,102715.72
2019-02-11T18:11:47.148Z,102722.01
2019-02-11T18:14:14.199Z,102721.69
2019-02-11T18:16:41.265Z,102739.30
2019-02-11T18:19:08.387Z,102746.23
2019-02-11T18:21:35.609Z,102756.55
2019-02-11T18:24:02.718Z,102760.98
2019-02-11T18:26:29.914Z,102767.75
2019-02-11T18:28:58.748Z,102757.09
2019-02-11T18:31:25.819Z,102775.57
2019-02-11T18:33:52.950Z,102778.69
2019-02-11T18:36:20.034Z,102780.48
2019-02-11T18:38:47.110Z,102774.17
2019-02-11T18:41:14.252Z,102781.97
2019-02-11T18:43:41.553Z,102796.01
2019-02-11T18:46:09.796Z,102804.61
2019-02-11T18:48:37.011Z,102817.89
2019-02-11T18:51:04.110Z,102809.97
2019-02-11T18:53:31.285Z,102813.25
2019-02-11T18:55:58.506Z,102809.10
2019-02-11T18:58:25.700Z,102807.95
2019-02-11T19:00:52.777Z,102789.63
2019-02-11T19:03:19.884Z,102767.53
2019-02-11T19:05:47.000Z,102755.70
2019-02-11T19:08:14.128Z,102780.91
2019-02-11T19:10:41.264Z,102796.11
2019-02-11T19:13:10.291Z,102784.28
2019-02-11T19:15:37.616Z,102777.86
2019-02-11T19:18:04.860Z,102784.32
2019-02-11T19:20:32.059Z,102805.20
2019-02-11T19:22:59.272Z,102832.87
2019-02-11T19:25:26.499Z,102850.95
2019-02-11T19:27:53.714Z,102851.49
2019-02-11T19:30:21.757Z,102858.84
2019-02-11T19:32:48.874Z,102868.20
2019-02-11T19:35:16.026Z,102854.53
2019-02-11T19:37:43.094Z,102847.07
2019-02-11T19:40:11.273Z,102864.65
2019-02-11T19:42:38.391Z,102863.21
2019-02-11T19:45:08.797Z,102859.42
2019-02-11T19:47:36.029Z,102861.46
2019-02-11T19:50:04.203Z,102873.48
2019-02-11T19:52:31.326Z,102871.77
2019-02-11T19:54:58.391Z,102879.37
2019-02-11T19:57:25.632Z,102878.80
2019-02-11T19:59:52.810Z,102881.48
2019-02-11T20:02:19.897Z,102882.81
2019-02-11T20:04:47.033Z,102895.01
2019-02-11T20:07:14.248Z,102886.77
2019-02-11T20:09:41.526Z,102902.00
2019-02-11T20:12:45.346Z,102895.58
2019-02-11T20:15:14.760Z,102907.58
2019-02-11T20:17:41.924Z,102911.24
2019-02-11T20:20:10.732Z,102914.13
2019-02-11T20:22:38.258Z,102926.98
2019-02-11T20:25:06.535Z,102920.59
2019-02-11T20:27:33.628Z,102931.59
2019-02-11T20:30:00.842Z,102936.15
2019-02-11T20:32:28.077Z,102934.89
2019-02-11T20:34:55.161Z,102931.77
2019-02-11T20:37:22.639Z,102937.97
2019-02-11T20:39:49.827Z,102938.36
2019-02-11T20:42:17.192Z,102943.50
2019-02-11T20:44:44.351Z,102939.67
2019-02-11T20:47:11.500Z,102940.58
2019-02-11T20:49:38.662Z,102940.53
2019-02-11T20:55:47.074Z,102940.56
2019-02-11T20:58:14.367Z,102954.59
2019-02-11T21:00:41.457Z,102964.29
2019-02-11T21:03:08.824Z,102973.70
2019-02-11T21:05:35.863Z,102978.41
2019-02-11T21:08:03.200Z,102983.25
2019-02-11T21:10:32.627Z,102985.36
2019-02-11T21:12:59.727Z,102989.64
2019-02-11T21:15:26.795Z,102987.29
2019-02-11T21:17:54.087Z,102988.50
2019-02-11T21:20:24.029Z,103001.62
2019-02-11T21:22:51.649Z,103006.47
2019-02-11T21:25:18.971Z,103009.45
2019-02-11T21:27:46.186Z,103018.62
2019-02-11T21:30:13.562Z,103024.52
2019-02-11T21:32:40.811Z,103035.48
2019-02-11T21:35:09.364Z,103035.48
2019-02-11T21:37:36.543Z,103041.25
2019-02-11T21:40:03.784Z,103034.47
2019-02-11T21:42:31.074Z,103038.45
2019-02-11T21:44:58.170Z,103043.17
2019-02-11T21:47:26.285Z,103031.70
2019-02-11T21:49:53.498Z,103032.52
2019-02-11T21:56:11.176Z,103036.94
2019-02-11T21:58:38.249Z,103029.63
2019-02-11T22:01:05.367Z,103033.91
2019-02-11T22:03:32.466Z,103036.11
2019-02-11T22:05:59.580Z,103040.92
2019-02-11T22:08:26.694Z,103042.84
2019-02-11T22:10:53.798Z,103046.11
2019-02-11T22:13:20.873Z,103040.96
2019-02-11T22:15:47.998Z,103048.63
2019-02-11T22:18:15.094Z,103055.35
2019-02-11T22:20:42.220Z,103060.01
2019-02-11T22:23:09.330Z,103061.66
2019-02-11T22:25:37.320Z,103066.26
2019-02-11T22:28:05.009Z,103068.77
2019-02-11T22:30:32.091Z,103072.50
2019-02-11T22:33:37.091Z,103066.41
2019-02-11T22:36:04.229Z,103064.05
2019-02-11T22:38:31.503Z,103072.53
2019-02-11T22:40:58.604Z,103068.50
2019-02-11T22:43:25.732Z,103078.63
2019-02-11T22:45:52.858Z,103073.98
2019-02-11T22:48:20.057Z,103074.74
2019-02-11T22:50:47.210Z,103081.66
2019-02-11T22:53:14.376Z,103079.08
2019-02-11T22:55:41.484Z,103080.34
2019-02-11T22:58:08.601Z,103080.11
2019-02-11T23:00:44.831Z,103083.77
2019-02-11T23:03:12.231Z,103089.00
2019-02-11T23:05:39.335Z,103092.66
2019-02-11T23:08:06.516Z,103103.12
2019-02-11T23:10:33.611Z,103110.61
2019-02-11T23:13:00.793Z,103101.69
2019-02-11T23:15:27.895Z,103095.97
2019-02-11T23:17:55.073Z,103099.03
2019-02-11T23:20:22.138Z,103095.08
2019-02-11T23:22:49.352Z,103101.80
2019-02-11T23:25:16.418Z,103105.69
2019-02-11T23:27:43.497Z,103103.80
2019-02-11T23:30:13.610Z,103099.12
2019-02-11T23:32:39.961Z,103100.27
2019-02-11T23:35:07.322Z,103109.73
2019-02-11T23:37:34.602Z,103113.70
2019-02-11T23:40:01.724Z,103118.36
2019-02-11T23:42:29.106Z,103121.02
2019-02-11T23:44:56.294Z,103114.09
2019-02-11T23:47:23.377Z,103115.86
2019-02-11T23:49:50.438Z,103123.25
2019-02-11T23:52:17.544Z,103123.63
2019-02-11T23:54:44.617Z,103131.33
2019-02-11T23:57:11.714Z,103132.86
2019-02-11T23:59:38.909Z,103136.69
